Главная страница
METAR-TAF:

METAR-TAF

Аэропорты :

Рёрус, Норвегия

широта: 62-35N, долгота: 011-21E, высота над уровнем моря: 626 м

Текущие метеонаблюдения

Эта сводка был подготовлена 27 минут назад, в 10:20 UTC
Ветер 6 Узел от южный-юго-западный, изменяющийся между юго-юго-восточный и западный-юго-западный
Температура 18°C
Влажность 73%
Давление 1017 hPa
Видимость 10 км и более
небольшая облачность на высоте 2800 фута
Рассеянная облачность на высоте 3600 фута

METAR: ENRO 061020Z 21006KT 160V250 9999 FEW028 BKN036 18/13 Q1017

Время: 12:47 (10:47 UTC)

Прогноз

Эта сводка был подготовлена 2 часа и 47 минут назад, в 08:00 UTC
Прогноз действительный с 06-го 09 UTC до 06-го 18 UTC
Ветер 8 Узел от юго-западный
Видимость 10 км и более
Рассеянная облачность на высоте 2000 фута

TAF: ENRO 060800Z 0609/0618 22008KT 9999 BKN020

Метеонаблюдения и прогнозы для более 4000 аэропортов (сводки METAR и TAF).

Имеющиеся станции представлены на карте желтыми и красными точками.

Чтобы увидеть название станции, наведите на нее мышь.

Затем щелкните, чтобы увидеть метеонаблюдения и метеопрогнозы.

Управление картой: чтобы увеличить масштаб, щелкните зеленые кнопки с черным крестиком; чтобы уменьшить масштаб, щелкните зеленую кнопку с тире; для просмотра соседних карт щелкайте зеленые стрелки.


METAR-TAF: